• Join FlightAware (Why Join?)
  • Login
  • US Flag 
09:16AM EST


 

Airport Tracker/Info


-or-


 

Live Flight TrackerFlight Track Log ✈ MAS2524 ✈ 06-May-2013 ✈ WMKK / KUL - WBGG / KCH

Flight Track Log - Related Links

Times and Time Zones

All times are in EDT time to prevent confusion due to time zone crossing. See the MAS2524 flight status page for this flight to view local times or setup timezone preferences in your user account.

Time Position Orientation Groundspeed Altitude Reporting Facility
EDT Latitude Longitude Course Direction KTS MPH feet Rate Location/Type
09:40AM 2.8320 101.6670 327° Northwest 199 229 2,000  Level FlightAware
09:40AM 2.8600 101.6560 339° North 235 270 3,400 2,820 Climbing FlightAware
09:41AM 2.8840 101.6730 35° Northeast 243 280 4,600 2,280 Climbing FlightAware
09:41AM 2.8910 101.6920 70° East 247 284 5,300 840 Climbing FlightAware
09:42AM 2.9010 101.7190 70° East 247 284 5,300 2,400 Level FlightAware
09:42AM 2.9170 101.7560 67° East 279 321 7,300 3,840 Climbing FlightAware
09:43AM 2.9310 101.7870 66° East 280 322 8,500 2,400 Climbing FlightAware
09:43AM 2.9430 101.8180 69° East 288 331 9,500 2,520 Climbing FlightAware
09:44AM 2.9650 101.8700 67° East 291 335 11,500 3,000 Climbing FlightAware
09:44AM 2.9850 101.9190 68° East 291 335 13,500 2,820 Climbing FlightAware
09:45AM 3.0080 101.9760 68° East 301 346 15,500 2,340 Climbing FlightAware
09:46AM 3.0390 102.0510 68° East 335 386 17,400 1,620 Climbing FlightAware
09:47AM 3.0650 102.1130 67° East 376 433 18,000 420 Climbing FlightAware
09:47AM 3.0960 102.1890 68° East 378 435 18,000  Level FlightAware
09:48AM 3.1210 102.2490 67° East 374 430 18,000 60 Level FlightAware
09:49AM 3.1480 102.3150 68° East 374 430 18,100 960 Climbing FlightAware
09:49AM 3.1820 102.3780 62° Northeast 392 451 19,300 2,040 Climbing FlightAware
09:50AM 3.2300 102.4460 55° Northeast 403 464 21,000 2,100 Climbing FlightAware
09:51AM 3.2630 102.5160 65° Northeast 409 471 22,300 1,560 Climbing FlightAware
09:52AM 3.2780 102.6270 82° East 430 495 23,600 1,260 Climbing FlightAware
09:53AM 3.2890 102.7110 83° East 441 507 24,400 1,020 Climbing FlightAware
09:53AM 3.3010 102.8030 83° East 428 493 25,100 840 Climbing FlightAware
09:54AM 3.3120 102.8870 83° East 445 512 25,700 780 Climbing FlightAware
09:55AM 3.3220 102.9580 82° East 443 510 26,200 360 Climbing FlightAware
09:55AM 3.3320 103.0270 82° East 443 510 26,200 1,860 Level FlightAware
09:56AM 3.3480 103.1540 83° East 454 522 29,000 1,680 Climbing FlightAware
09:57AM 3.3610 103.2530 83° East 462 532 29,000  Level FlightAware
09:58AM 3.3710 103.3260 82° East 462 532 29,000  Level FlightAware
09:58AM 3.3840 103.4160 82° East 462 532 29,000  Level FlightAware
09:59AM 3.3940 103.4880 82° East 462 532 29,000  Level FlightAware
09:59AM 3.3460 103.5560 125° Southeast 466 536 29,000  Level FlightAware
10:00AM 3.3300 103.6310 102° East 467 537 29,000  Level FlightAware
10:01AM 3.3140 103.7160 101° East 467 537 29,000  Level FlightAware
10:01AM 3.2970 103.8020 101° East 467 537 29,000  Level FlightAware
10:02AM 3.2520 103.9160 112° Southeast 473 544 29,000  Level FlightAware
10:03AM 3.2250 103.9940 109° East 467 537 29,000  Level FlightAware
10:03AM 3.2110 104.0620 102° East 467 537 29,000  Level FlightAware
10:04AM 3.1710 104.1910 107° East 484 557 29,000  Level FlightAware
10:05AM 3.1490 104.2700 106° East 486 559 29,000  Level FlightAware
10:06AM 3.1190 104.3780 106° East 487 560 29,000 240 Level FlightAware
10:06AM 3.0960 104.4640 105° East 480 552 29,400 1,080 Climbing FlightAware
10:07AM 3.0720 104.5490 106° East 475 547 30,500 1,500 Climbing FlightAware
10:08AM 3.0470 104.6430 105° East 475 547 31,600 1,320 Climbing FlightAware
10:08AM 3.0230 104.7270 106° East 477 549 32,400 960 Climbing FlightAware
10:09AM 2.9980 104.8200 105° East 475 547 33,000 420 Climbing FlightAware
10:10AM 2.9730 104.9090 106° East 475 547 33,000  Level FlightAware
10:11AM 2.9490 104.9950 106° East 477 549 33,000  Level FlightAware
10:11AM 2.9240 105.0870 105° East 478 550 33,000  Level FlightAware
10:12AM 2.9000 105.1730 106° East 479 551 33,000  Level FlightAware
10:13AM 2.8730 105.2700 106° East 479 551 33,000  Level FlightAware
10:13AM 2.8520 105.3510 105° East 479 551 33,000  Level FlightAware
10:14AM 2.8320 105.4230 106° East 479 551 33,000  Level FlightAware
10:15AM 2.8130 105.4960 105° East 479 551 33,000  Level FlightAware
10:15AM 2.7930 105.5690 105° East 479 551 33,000  Level FlightAware
10:16AM 2.7740 105.6420 105° East 479 551 33,000  Level FlightAware
10:17AM 2.7490 105.7330 105° East 479 551 33,000  Level FlightAware
10:18AM 2.7300 105.8060 105° East 479 551 33,000  Level FlightAware
10:18AM 2.7100 105.8790 105° East 479 551 33,000  Level FlightAware
10:19AM 2.6560 106.0620 106° East 475 547 33,000  Level FlightAware
10:20AM 2.6310 106.1510 106° East 476 548 33,000  Level FlightAware
10:20AM 2.6040 106.2470 106° East 477 549 33,000  Level FlightAware
10:21AM 2.5800 106.3340 105° East 478 550 33,000  Level FlightAware
10:22AM 2.5550 106.4260 105° East 477 549 33,000  Level FlightAware
10:22AM 2.5310 106.5120 106° East 478 550 33,000  Level FlightAware
10:23AM 2.5070 106.5960 106° East 479 551 33,000  Level FlightAware
10:24AM 2.4840 106.6820 105° East 478 550 33,000  Level FlightAware
10:25AM 2.4610 106.7670 105° East 478 550 33,000  Level FlightAware
10:25AM 2.4420 106.8390 105° East 478 550 33,000  Level FlightAware
10:26AM 2.4220 106.9120 105° East 478 550 33,000  Level FlightAware
10:27AM 2.4030 106.9850 105° East 478 550 33,000  Level FlightAware
10:27AM 2.3780 107.0760 105° East 478 550 33,000  Level FlightAware
10:28AM 2.3590 107.1480 105° East 478 550 33,000  Level FlightAware
10:29AM 2.3390 107.2210 105° East 478 550 33,000  Level FlightAware
10:29AM 2.3200 107.2940 105° East 478 550 33,000  Level FlightAware
10:30AM 2.3010 107.3660 105° East 478 550 33,000  Level FlightAware
10:31AM 2.2460 107.5870 104° East 483 556 33,000  Level FlightAware
10:31AM 2.2280 107.6570 104° East 483 556 33,000  Level FlightAware
10:32AM 2.1920 107.7420 113° Southeast 481 554 33,000  Level FlightAware
10:33AM 2.1620 107.8300 109° East 481 554 33,000  Level FlightAware
10:34AM 2.1370 107.9010 109° East 481 554 33,000  Level FlightAware
10:34AM 2.1060 107.9910 109° East 481 554 33,000  Level FlightAware
10:35AM 2.0820 108.0620 109° East 481 554 33,000  Level FlightAware
10:36AM 2.0570 108.1340 109° East 481 554 33,000  Level FlightAware
10:36AM 2.0320 108.2050 109° East 481 554 33,000  Level FlightAware
10:37AM 2.0080 108.2770 108° East 481 554 33,000  Level FlightAware
10:38AM 1.9830 108.3480 109° East 481 554 33,000  Level FlightAware
10:39AM 1.9520 108.4380 109° East 481 554 33,000  Level FlightAware
10:39AM 1.9980 108.6540 78° East 476 548 33,000  Level FlightAware
10:40AM 1.9780 108.7660 100° East 478 550 33,000  Level FlightAware
10:41AM 1.9630 108.8510 100° East 478 550 33,000  Level FlightAware
10:41AM 1.9460 108.9490 100° East 478 550 33,000  Level FlightAware
10:42AM 1.9300 109.0370 100° East 479 551 33,000  Level FlightAware
10:43AM 1.9170 109.1240 99° East 480 552 33,000 -120 Level FlightAware
10:43AM 1.9010 109.2210 99° East 481 554 32,900 -1,380 Descending FlightAware
10:44AM 1.8860 109.3080 100° East 485 558 31,100 -3,060 Descending FlightAware
10:45AM 1.8680 109.4100 100° East 489 563 28,600 -3,420 Descending FlightAware
10:46AM 1.8520 109.5000 100° East 490 564 26,300 -3,420 Descending FlightAware
10:46AM 1.8360 109.5880 100° East 477 549 24,100 -2,880 Descending FlightAware
10:47AM 1.8200 109.6800 100° East 452 520 22,300 -2,580 Descending FlightAware
10:48AM 1.8060 109.7610 100° East 440 506 20,500 -2,700 Descending FlightAware
10:48AM 1.7900 109.8510 100° East 422 486 18,500 -2,640 Descending FlightAware
10:49AM 1.7770 109.9260 100° East 408 470 16,800 -2,400 Descending FlightAware
10:50AM 1.7630 110.0060 100° East 393 452 15,100 -2,340 Descending FlightAware
10:50AM 1.7500 110.0770 100° East 383 441 13,500 -2,400 Descending FlightAware
10:51AM 1.7380 110.1460 100° East 378 435 11,900 -2,700 Descending FlightAware
10:52AM 1.7190 110.2230 104° East 372 428 9,700 -2,940 Descending FlightAware
10:52AM 1.7080 110.2640 105° East 368 423 8,500 -2,880 Descending FlightAware
10:53AM 1.6940 110.3130 106° East 364 419 7,100 -2,880 Descending FlightAware
10:53AM 1.6830 110.3540 105° East 361 415 5,900 -2,700 Descending FlightAware
10:53AM 1.6770 110.3760 105° East 359 413 5,300 -1,200 Descending FlightAware
10:54AM 1.6650 110.4230 104° East 324 373 5,000 -1,020 Descending FlightAware
10:54AM 1.6550 110.4590 106° East 302 348 4,400 -1,440 Descending FlightAware
10:55AM 1.6390 110.4940 115° Southeast 282 325 3,700 -1,380 Descending FlightAware
10:55AM 1.6280 110.5020 144° Southeast 275 316 3,500 -960 Descending FlightAware
10:55AM 1.6110 110.5080 161° South 263 303 3,300 -780 Descending FlightAware
10:56AM 1.5830 110.5160 164° South 246 283 3,000 -600 Descending FlightAware
10:56AM 1.5500 110.5040 200° South 213 245 2,700 -720 Descending FlightAware
10:56AM 1.5440 110.4960 233° Southwest 201 231 2,500 -780 Descending FlightAware
10:57AM 1.5350 110.4720 249° West 179 206 2,200 -720 Descending FlightAware
10:57AM 1.5260 110.4500 248° West 163 188 1,800 -780 Descending FlightAware
10:58AM 1.5230 110.4430 247° West 160 184 1,700 -780 Descending FlightAware
10:58AM 1.5150 110.4220 249° West 151 174 1,300 -840 Descending FlightAware
10:59AM 1.5070 110.4030 247° West 147 169 900 -780 Descending FlightAware
10:59AM 1.5010 110.3870 249° West 146 168 600 -780 Descending FlightAware
11:00AM 1.4930 110.3680 247° West 151 174 200 -840 Descending FlightAware